sensor_id;sensor_type;location;lat;lon;timestamp;P1;durP1;ratioP1;P2;durP2;ratioP2
24483;SDS011;12643;51.620;7.548;2022-08-26T00:02:08;7.47;;;6.68;;
24483;SDS011;12643;51.620;7.548;2022-08-26T00:04:37;7.88;;;7.07;;
24483;SDS011;12643;51.620;7.548;2022-08-26T00:07:05;6.60;;;6.00;;
24483;SDS011;12643;51.620;7.548;2022-08-26T00:09:34;7.00;;;6.25;;
24483;SDS011;12643;51.620;7.548;2022-08-26T00:12:02;7.45;;;6.70;;
24483;SDS011;12643;51.620;7.548;2022-08-26T00:14:31;7.05;;;6.35;;
24483;SDS011;12643;51.620;7.548;2022-08-26T00:16:59;9.27;;;6.93;;
24483;SDS011;12643;51.620;7.548;2022-08-26T00:19:36;8.68;;;6.72;;
24483;SDS011;12643;51.620;7.548;2022-08-26T00:22:05;9.13;;;7.10;;
24483;SDS011;12643;51.620;7.548;2022-08-26T00:24:33;7.32;;;6.60;;
24483;SDS011;12643;51.620;7.548;2022-08-26T00:27:12;9.63;;;6.90;;
24483;SDS011;12643;51.620;7.548;2022-08-26T00:29:40;7.20;;;6.50;;
24483;SDS011;12643;51.620;7.548;2022-08-26T00:32:08;7.05;;;6.25;;
24483;SDS011;12643;51.620;7.548;2022-08-26T00:34:38;7.63;;;6.65;;
24483;SDS011;12643;51.620;7.548;2022-08-26T00:37:07;7.03;;;6.22;;
24483;SDS011;12643;51.620;7.548;2022-08-26T00:39:36;8.13;;;7.07;;
24483;SDS011;12643;51.620;7.548;2022-08-26T00:44:35;8.32;;;6.70;;
24483;SDS011;12643;51.620;7.548;2022-08-26T00:47:05;8.23;;;7.40;;
24483;SDS011;12643;51.620;7.548;2022-08-26T00:49:53;9.80;;;8.10;;
24483;SDS011;12643;51.620;7.548;2022-08-26T00:52:22;8.13;;;7.32;;
24483;SDS011;12643;51.620;7.548;2022-08-26T00:54:52;10.20;;;6.90;;
24483;SDS011;12643;51.620;7.548;2022-08-26T00:57:26;8.00;;;7.18;;
24483;SDS011;12643;51.620;7.548;2022-08-26T00:59:55;7.10;;;6.50;;
24483;SDS011;12643;51.620;7.548;2022-08-26T01:02:27;7.90;;;7.13;;
24483;SDS011;12643;51.620;7.548;2022-08-26T01:04:57;8.43;;;7.63;;
24483;SDS011;12643;51.620;7.548;2022-08-26T01:07:27;9.00;;;7.35;;
24483;SDS011;12643;51.620;7.548;2022-08-26T01:09:59;9.23;;;7.95;;
24483;SDS011;12643;51.620;7.548;2022-08-26T01:12:31;8.80;;;7.47;;
24483;SDS011;12643;51.620;7.548;2022-08-26T01:15:04;11.95;;;7.43;;
24483;SDS011;12643;51.620;7.548;2022-08-26T01:17:33;9.55;;;7.53;;
24483;SDS011;12643;51.620;7.548;2022-08-26T01:20:11;11.02;;;8.25;;
24483;SDS011;12643;51.620;7.548;2022-08-26T01:22:52;8.93;;;7.97;;
24483;SDS011;12643;51.620;7.548;2022-08-26T01:25:26;9.30;;;7.88;;
24483;SDS011;12643;51.620;7.548;2022-08-26T01:27:56;9.00;;;7.35;;
24483;SDS011;12643;51.620;7.548;2022-08-26T01:30:30;8.90;;;7.78;;
24483;SDS011;12643;51.620;7.548;2022-08-26T01:33:02;9.23;;;8.02;;
24483;SDS011;12643;51.620;7.548;2022-08-26T01:35:33;10.63;;;8.07;;
24483;SDS011;12643;51.620;7.548;2022-08-26T01:38:04;9.40;;;7.82;;
24483;SDS011;12643;51.620;7.548;2022-08-26T01:40:33;9.25;;;8.13;;
24483;SDS011;12643;51.620;7.548;2022-08-26T01:43:04;8.57;;;7.65;;
24483;SDS011;12643;51.620;7.548;2022-08-26T01:45:36;8.85;;;7.95;;
24483;SDS011;12643;51.620;7.548;2022-08-26T01:48:07;7.75;;;6.95;;
24483;SDS011;12643;51.620;7.548;2022-08-26T01:50:43;8.20;;;7.40;;
24483;SDS011;12643;51.620;7.548;2022-08-26T01:53:13;11.48;;;8.18;;
24483;SDS011;12643;51.620;7.548;2022-08-26T01:55:45;9.95;;;8.43;;
24483;SDS011;12643;51.620;7.548;2022-08-26T01:58:19;9.07;;;7.93;;
24483;SDS011;12643;51.620;7.548;2022-08-26T02:00:53;8.98;;;7.60;;
24483;SDS011;12643;51.620;7.548;2022-08-26T02:03:21;9.23;;;8.35;;
24483;SDS011;12643;51.620;7.548;2022-08-26T02:05:53;9.13;;;8.15;;
24483;SDS011;12643;51.620;7.548;2022-08-26T02:08:25;11.32;;;8.25;;
24483;SDS011;12643;51.620;7.548;2022-08-26T02:10:58;11.07;;;9.15;;
24483;SDS011;12643;51.620;7.548;2022-08-26T02:13:26;9.55;;;8.65;;
24483;SDS011;12643;51.620;7.548;2022-08-26T02:15:57;10.32;;;8.45;;
24483;SDS011;12643;51.620;7.548;2022-08-26T02:18:26;10.50;;;8.80;;
24483;SDS011;12643;51.620;7.548;2022-08-26T02:20:55;10.25;;;9.13;;
24483;SDS011;12643;51.620;7.548;2022-08-26T02:23:29;12.55;;;8.70;;
24483;SDS011;12643;51.620;7.548;2022-08-26T02:25:59;12.32;;;9.57;;
24483;SDS011;12643;51.620;7.548;2022-08-26T02:28:33;11.57;;;9.23;;
24483;SDS011;12643;51.620;7.548;2022-08-26T02:31:04;13.70;;;9.10;;
24483;SDS011;12643;51.620;7.548;2022-08-26T02:33:33;11.50;;;9.70;;
24483;SDS011;12643;51.620;7.548;2022-08-26T02:36:03;9.32;;;8.38;;
24483;SDS011;12643;51.620;7.548;2022-08-26T02:38:33;12.50;;;8.90;;
24483;SDS011;12643;51.620;7.548;2022-08-26T02:41:01;12.60;;;10.32;;
24483;SDS011;12643;51.620;7.548;2022-08-26T02:43:31;14.02;;;10.23;;
24483;SDS011;12643;51.620;7.548;2022-08-26T02:45:59;12.10;;;9.98;;
24483;SDS011;12643;51.620;7.548;2022-08-26T02:48:27;10.75;;;9.63;;
24483;SDS011;12643;51.620;7.548;2022-08-26T02:50:58;10.55;;;9.45;;
24483;SDS011;12643;51.620;7.548;2022-08-26T02:53:26;10.25;;;9.20;;
24483;SDS011;12643;51.620;7.548;2022-08-26T02:55:56;15.25;;;10.15;;
24483;SDS011;12643;51.620;7.548;2022-08-26T02:58:25;10.52;;;9.52;;
24483;SDS011;12643;51.620;7.548;2022-08-26T03:00:53;11.20;;;9.57;;
24483;SDS011;12643;51.620;7.548;2022-08-26T03:03:21;16.50;;;12.95;;
24483;SDS011;12643;51.620;7.548;2022-08-26T03:05:54;14.23;;;11.57;;
24483;SDS011;12643;51.620;7.548;2022-08-26T03:08:22;20.13;;;13.40;;
24483;SDS011;12643;51.620;7.548;2022-08-26T03:10:51;19.10;;;13.63;;
24483;SDS011;12643;51.620;7.548;2022-08-26T03:13:20;20.73;;;14.48;;
24483;SDS011;12643;51.620;7.548;2022-08-26T03:15:48;16.55;;;13.85;;
24483;SDS011;12643;51.620;7.548;2022-08-26T03:18:16;17.65;;;14.15;;
24483;SDS011;12643;51.620;7.548;2022-08-26T03:20:45;18.80;;;14.50;;
24483;SDS011;12643;51.620;7.548;2022-08-26T03:23:13;18.10;;;15.60;;
24483;SDS011;12643;51.620;7.548;2022-08-26T03:25:41;15.68;;;14.02;;
24483;SDS011;12643;51.620;7.548;2022-08-26T03:28:13;23.73;;;15.43;;
24483;SDS011;12643;51.620;7.548;2022-08-26T03:30:43;20.30;;;16.23;;
24483;SDS011;12643;51.620;7.548;2022-08-26T03:35:41;24.35;;;18.38;;
24483;SDS011;12643;51.620;7.548;2022-08-26T03:38:11;26.15;;;21.23;;
24483;SDS011;12643;51.620;7.548;2022-08-26T03:40:41;31.00;;;23.48;;
24483;SDS011;12643;51.620;7.548;2022-08-26T03:43:09;33.58;;;25.20;;
24483;SDS011;12643;51.620;7.548;2022-08-26T03:45:38;27.77;;;22.02;;
24483;SDS011;12643;51.620;7.548;2022-08-26T03:48:08;30.92;;;22.92;;
24483;SDS011;12643;51.620;7.548;2022-08-26T03:50:36;24.15;;;21.20;;
24483;SDS011;12643;51.620;7.548;2022-08-26T03:53:05;24.38;;;21.27;;
24483;SDS011;12643;51.620;7.548;2022-08-26T03:55:34;27.67;;;23.95;;
24483;SDS011;12643;51.620;7.548;2022-08-26T03:58:02;28.13;;;23.80;;
24483;SDS011;12643;51.620;7.548;2022-08-26T04:00:30;27.58;;;23.60;;
24483;SDS011;12643;51.620;7.548;2022-08-26T04:02:59;33.75;;;24.98;;
24483;SDS011;12643;51.620;7.548;2022-08-26T04:05:34;28.92;;;22.90;;
24483;SDS011;12643;51.620;7.548;2022-08-26T04:08:04;28.90;;;25.02;;
24483;SDS011;12643;51.620;7.548;2022-08-26T04:10:32;35.38;;;30.60;;
24483;SDS011;12643;51.620;7.548;2022-08-26T04:13:02;34.70;;;30.08;;
24483;SDS011;12643;51.620;7.548;2022-08-26T04:15:32;35.33;;;27.67;;
24483;SDS011;12643;51.620;7.548;2022-08-26T04:17:59;44.80;;;36.92;;
24483;SDS011;12643;51.620;7.548;2022-08-26T04:20:27;48.75;;;38.35;;
24483;SDS011;12643;51.620;7.548;2022-08-26T04:22:58;44.67;;;38.75;;
24483;SDS011;12643;51.620;7.548;2022-08-26T04:25:26;41.60;;;36.85;;
24483;SDS011;12643;51.620;7.548;2022-08-26T04:27:54;41.08;;;34.33;;
24483;SDS011;12643;51.620;7.548;2022-08-26T04:30:25;41.17;;;35.38;;
24483;SDS011;12643;51.620;7.548;2022-08-26T04:32:54;42.25;;;37.33;;
24483;SDS011;12643;51.620;7.548;2022-08-26T04:35:22;42.13;;;36.55;;
24483;SDS011;12643;51.620;7.548;2022-08-26T04:37:49;53.13;;;42.15;;
24483;SDS011;12643;51.620;7.548;2022-08-26T04:40:22;44.80;;;39.88;;
24483;SDS011;12643;51.620;7.548;2022-08-26T04:45:21;47.17;;;39.88;;
24483;SDS011;12643;51.620;7.548;2022-08-26T04:47:53;48.08;;;42.83;;
24483;SDS011;12643;51.620;7.548;2022-08-26T04:50:22;47.63;;;40.65;;
24483;SDS011;12643;51.620;7.548;2022-08-26T04:52:51;55.20;;;45.08;;
24483;SDS011;12643;51.620;7.548;2022-08-26T04:55:20;62.15;;;50.58;;
24483;SDS011;12643;51.620;7.548;2022-08-26T04:57:50;62.92;;;50.97;;
24483;SDS011;12643;51.620;7.548;2022-08-26T05:00:21;57.60;;;47.97;;
24483;SDS011;12643;51.620;7.548;2022-08-26T05:02:50;63.58;;;53.83;;
24483;SDS011;12643;51.620;7.548;2022-08-26T05:05:18;67.47;;;57.58;;
24483;SDS011;12643;51.620;7.548;2022-08-26T05:07:46;69.60;;;59.30;;
24483;SDS011;12643;51.620;7.548;2022-08-26T05:10:14;67.28;;;59.85;;
24483;SDS011;12643;51.620;7.548;2022-08-26T05:12:45;69.68;;;59.13;;
24483;SDS011;12643;51.620;7.548;2022-08-26T05:15:13;73.15;;;63.65;;
24483;SDS011;12643;51.620;7.548;2022-08-26T05:17:41;74.82;;;63.28;;
24483;SDS011;12643;51.620;7.548;2022-08-26T05:20:09;78.60;;;66.55;;
24483;SDS011;12643;51.620;7.548;2022-08-26T05:22:40;69.78;;;62.05;;
24483;SDS011;12643;51.620;7.548;2022-08-26T05:25:08;81.00;;;63.83;;
24483;SDS011;12643;51.620;7.548;2022-08-26T05:27:36;77.32;;;68.85;;
24483;SDS011;12643;51.620;7.548;2022-08-26T05:30:09;88.53;;;75.35;;
24483;SDS011;12643;51.620;7.548;2022-08-26T05:32:38;86.35;;;76.63;;
24483;SDS011;12643;51.620;7.548;2022-08-26T05:35:08;98.43;;;80.40;;
24483;SDS011;12643;51.620;7.548;2022-08-26T05:37:36;97.90;;;75.63;;
24483;SDS011;12643;51.620;7.548;2022-08-26T05:40:07;100.40;;;78.05;;
24483;SDS011;12643;51.620;7.548;2022-08-26T05:42:35;92.35;;;75.40;;
24483;SDS011;12643;51.620;7.548;2022-08-26T05:45:03;91.10;;;74.90;;
24483;SDS011;12643;51.620;7.548;2022-08-26T05:47:34;90.40;;;74.50;;
24483;SDS011;12643;51.620;7.548;2022-08-26T05:50:02;92.00;;;75.57;;
24483;SDS011;12643;51.620;7.548;2022-08-26T05:52:34;97.75;;;80.47;;
24483;SDS011;12643;51.620;7.548;2022-08-26T05:57:32;101.53;;;79.88;;
24483;SDS011;12643;51.620;7.548;2022-08-26T06:00:07;94.60;;;76.85;;
24483;SDS011;12643;51.620;7.548;2022-08-26T06:02:46;98.50;;;75.13;;
24483;SDS011;12643;51.620;7.548;2022-08-26T06:05:14;91.28;;;74.22;;
24483;SDS011;12643;51.620;7.548;2022-08-26T06:07:44;94.78;;;78.60;;
24483;SDS011;12643;51.620;7.548;2022-08-26T06:10:30;97.80;;;78.38;;
24483;SDS011;12643;51.620;7.548;2022-08-26T06:12:59;87.60;;;73.25;;
24483;SDS011;12643;51.620;7.548;2022-08-26T06:15:27;94.50;;;74.75;;
24483;SDS011;12643;51.620;7.548;2022-08-26T06:17:56;88.35;;;71.82;;
24483;SDS011;12643;51.620;7.548;2022-08-26T06:20:24;96.25;;;71.72;;
24483;SDS011;12643;51.620;7.548;2022-08-26T06:22:52;86.80;;;71.10;;
24483;SDS011;12643;51.620;7.548;2022-08-26T06:25:38;91.25;;;71.78;;
24483;SDS011;12643;51.620;7.548;2022-08-26T06:28:10;81.80;;;65.78;;
24483;SDS011;12643;51.620;7.548;2022-08-26T06:30:41;84.65;;;70.70;;
24483;SDS011;12643;51.620;7.548;2022-08-26T06:33:11;83.18;;;66.03;;
24483;SDS011;12643;51.620;7.548;2022-08-26T06:35:41;85.85;;;67.38;;
24483;SDS011;12643;51.620;7.548;2022-08-26T06:38:11;83.03;;;65.50;;
24483;SDS011;12643;51.620;7.548;2022-08-26T06:40:43;77.05;;;63.60;;
24483;SDS011;12643;51.620;7.548;2022-08-26T06:43:14;71.85;;;61.13;;
24483;SDS011;12643;51.620;7.548;2022-08-26T06:45:47;77.28;;;62.40;;
24483;SDS011;12643;51.620;7.548;2022-08-26T06:48:18;79.68;;;63.65;;
24483;SDS011;12643;51.620;7.548;2022-08-26T06:50:47;79.55;;;63.25;;
24483;SDS011;12643;51.620;7.548;2022-08-26T06:53:16;81.13;;;62.75;;
24483;SDS011;12643;51.620;7.548;2022-08-26T06:55:48;76.40;;;59.90;;
24483;SDS011;12643;51.620;7.548;2022-08-26T06:58:17;72.65;;;59.22;;
24483;SDS011;12643;51.620;7.548;2022-08-26T07:00:47;76.40;;;60.53;;
24483;SDS011;12643;51.620;7.548;2022-08-26T07:03:18;75.65;;;60.65;;
24483;SDS011;12643;51.620;7.548;2022-08-26T07:13:34;77.95;;;60.60;;
24483;SDS011;12643;51.620;7.548;2022-08-26T07:16:03;80.05;;;61.55;;
24483;SDS011;12643;51.620;7.548;2022-08-26T07:18:33;73.15;;;59.03;;
24483;SDS011;12643;51.620;7.548;2022-08-26T07:21:03;75.53;;;62.30;;
24483;SDS011;12643;51.620;7.548;2022-08-26T07:23:33;75.32;;;61.17;;
24483;SDS011;12643;51.620;7.548;2022-08-26T07:26:03;76.40;;;59.38;;
24483;SDS011;12643;51.620;7.548;2022-08-26T07:28:32;73.63;;;58.88;;
24483;SDS011;12643;51.620;7.548;2022-08-26T07:31:02;68.05;;;55.53;;
24483;SDS011;12643;51.620;7.548;2022-08-26T07:36:00;68.88;;;54.13;;
24483;SDS011;12643;51.620;7.548;2022-08-26T07:38:30;67.43;;;56.35;;
24483;SDS011;12643;51.620;7.548;2022-08-26T07:40:58;63.38;;;52.78;;
24483;SDS011;12643;51.620;7.548;2022-08-26T07:43:27;68.28;;;56.33;;
24483;SDS011;12643;51.620;7.548;2022-08-26T07:45:56;67.07;;;53.38;;
24483;SDS011;12643;51.620;7.548;2022-08-26T07:48:24;74.82;;;55.70;;
24483;SDS011;12643;51.620;7.548;2022-08-26T07:50:53;59.20;;;51.13;;
24483;SDS011;12643;51.620;7.548;2022-08-26T07:53:21;64.22;;;53.40;;
24483;SDS011;12643;51.620;7.548;2022-08-26T07:55:49;57.55;;;49.30;;
24483;SDS011;12643;51.620;7.548;2022-08-26T07:58:17;62.40;;;53.75;;
24483;SDS011;12643;51.620;7.548;2022-08-26T08:00:45;68.28;;;53.33;;
24483;SDS011;12643;51.620;7.548;2022-08-26T08:03:13;62.15;;;50.42;;
24483;SDS011;12643;51.620;7.548;2022-08-26T08:05:41;67.60;;;52.10;;
24483;SDS011;12643;51.620;7.548;2022-08-26T08:08:10;69.35;;;55.92;;
24483;SDS011;12643;51.620;7.548;2022-08-26T08:10:38;61.15;;;52.00;;
24483;SDS011;12643;51.620;7.548;2022-08-26T08:13:06;60.97;;;50.58;;
24483;SDS011;12643;51.620;7.548;2022-08-26T08:15:35;66.63;;;56.00;;
24483;SDS011;12643;51.620;7.548;2022-08-26T08:18:03;62.17;;;50.45;;
24483;SDS011;12643;51.620;7.548;2022-08-26T08:20:32;56.97;;;47.70;;
24483;SDS011;12643;51.620;7.548;2022-08-26T08:23:00;62.72;;;48.70;;
24483;SDS011;12643;51.620;7.548;2022-08-26T08:25:30;64.25;;;50.13;;
24483;SDS011;12643;51.620;7.548;2022-08-26T08:27:59;55.22;;;47.03;;
24483;SDS011;12643;51.620;7.548;2022-08-26T08:30:27;62.60;;;48.10;;
24483;SDS011;12643;51.620;7.548;2022-08-26T08:32:55;62.50;;;48.10;;
24483;SDS011;12643;51.620;7.548;2022-08-26T08:35:23;54.90;;;47.72;;
24483;SDS011;12643;51.620;7.548;2022-08-26T08:37:52;62.88;;;46.88;;
24483;SDS011;12643;51.620;7.548;2022-08-26T08:40:20;50.88;;;45.08;;
24483;SDS011;12643;51.620;7.548;2022-08-26T08:42:53;58.08;;;45.13;;
24483;SDS011;12643;51.620;7.548;2022-08-26T08:45:26;54.40;;;41.03;;
24483;SDS011;12643;51.620;7.548;2022-08-26T08:47:59;50.47;;;44.47;;
24483;SDS011;12643;51.620;7.548;2022-08-26T08:50:30;52.13;;;44.83;;
24483;SDS011;12643;51.620;7.548;2022-08-26T08:53:07;48.72;;;41.47;;
24483;SDS011;12643;51.620;7.548;2022-08-26T08:55:49;49.40;;;43.25;;
24483;SDS011;12643;51.620;7.548;2022-08-26T08:58:40;49.08;;;43.00;;
24483;SDS011;12643;51.620;7.548;2022-08-26T09:01:18;54.63;;;42.33;;
24483;SDS011;12643;51.620;7.548;2022-08-26T09:03:53;58.58;;;41.17;;
24483;SDS011;12643;51.620;7.548;2022-08-26T09:06:31;49.35;;;40.05;;
24483;SDS011;12643;51.620;7.548;2022-08-26T09:08:58;49.03;;;40.28;;
24483;SDS011;12643;51.620;7.548;2022-08-26T09:11:28;46.75;;;40.95;;
24483;SDS011;12643;51.620;7.548;2022-08-26T09:13:57;45.83;;;39.65;;
24483;SDS011;12643;51.620;7.548;2022-08-26T09:16:26;51.25;;;40.83;;
24483;SDS011;12643;51.620;7.548;2022-08-26T09:19:05;44.33;;;39.60;;
24483;SDS011;12643;51.620;7.548;2022-08-26T09:21:40;45.80;;;40.75;;
24483;SDS011;12643;51.620;7.548;2022-08-26T09:24:07;47.90;;;39.08;;
24483;SDS011;12643;51.620;7.548;2022-08-26T09:26:43;49.85;;;40.67;;
24483;SDS011;12643;51.620;7.548;2022-08-26T09:29:18;51.75;;;40.05;;
24483;SDS011;12643;51.620;7.548;2022-08-26T09:31:48;45.30;;;36.80;;
24483;SDS011;12643;51.620;7.548;2022-08-26T09:34:17;46.35;;;35.88;;
24483;SDS011;12643;51.620;7.548;2022-08-26T09:39:23;42.03;;;36.67;;
24483;SDS011;12643;51.620;7.548;2022-08-26T09:42:01;44.00;;;36.55;;
24483;SDS011;12643;51.620;7.548;2022-08-26T09:44:54;40.17;;;33.70;;
24483;SDS011;12643;51.620;7.548;2022-08-26T09:47:24;42.45;;;36.45;;
24483;SDS011;12643;51.620;7.548;2022-08-26T09:49:59;42.90;;;35.67;;
24483;SDS011;12643;51.620;7.548;2022-08-26T09:52:31;37.13;;;32.13;;
24483;SDS011;12643;51.620;7.548;2022-08-26T09:55:01;39.38;;;31.88;;
24483;SDS011;12643;51.620;7.548;2022-08-26T09:57:32;40.55;;;33.05;;
24483;SDS011;12643;51.620;7.548;2022-08-26T10:00:03;38.63;;;33.55;;
24483;SDS011;12643;51.620;7.548;2022-08-26T10:02:51;40.38;;;32.08;;
24483;SDS011;12643;51.620;7.548;2022-08-26T10:05:25;36.30;;;31.55;;
24483;SDS011;12643;51.620;7.548;2022-08-26T10:07:57;36.42;;;30.65;;
24483;SDS011;12643;51.620;7.548;2022-08-26T10:10:31;44.60;;;35.47;;
24483;SDS011;12643;51.620;7.548;2022-08-26T10:13:05;39.13;;;32.30;;
24483;SDS011;12643;51.620;7.548;2022-08-26T10:15:42;37.35;;;31.65;;
24483;SDS011;12643;51.620;7.548;2022-08-26T10:18:16;37.78;;;30.75;;
24483;SDS011;12643;51.620;7.548;2022-08-26T10:20:52;37.17;;;31.77;;
24483;SDS011;12643;51.620;7.548;2022-08-26T10:23:24;41.20;;;31.55;;
24483;SDS011;12643;51.620;7.548;2022-08-26T10:25:55;38.00;;;31.00;;
24483;SDS011;12643;51.620;7.548;2022-08-26T10:28:29;36.03;;;29.67;;
24483;SDS011;12643;51.620;7.548;2022-08-26T10:31:03;31.92;;;27.70;;
24483;SDS011;12643;51.620;7.548;2022-08-26T10:33:43;33.50;;;27.67;;
24483;SDS011;12643;51.620;7.548;2022-08-26T10:36:12;37.00;;;29.27;;
24483;SDS011;12643;51.620;7.548;2022-08-26T10:38:58;35.30;;;29.35;;
24483;SDS011;12643;51.620;7.548;2022-08-26T10:41:30;39.13;;;29.38;;
24483;SDS011;12643;51.620;7.548;2022-08-26T10:44:02;35.75;;;30.27;;
24483;SDS011;12643;51.620;7.548;2022-08-26T10:46:34;39.75;;;29.83;;
24483;SDS011;12643;51.620;7.548;2022-08-26T10:49:06;35.17;;;27.60;;
24483;SDS011;12643;51.620;7.548;2022-08-26T10:51:37;36.22;;;28.13;;
24483;SDS011;12643;51.620;7.548;2022-08-26T10:54:09;29.30;;;26.27;;
24483;SDS011;12643;51.620;7.548;2022-08-26T10:56:44;36.10;;;29.33;;
24483;SDS011;12643;51.620;7.548;2022-08-26T10:59:20;29.90;;;26.13;;
24483;SDS011;12643;51.620;7.548;2022-08-26T11:01:58;31.83;;;26.52;;
24483;SDS011;12643;51.620;7.548;2022-08-26T11:04:39;33.33;;;27.40;;
24483;SDS011;12643;51.620;7.548;2022-08-26T11:10:00;32.70;;;27.65;;
24483;SDS011;12643;51.620;7.548;2022-08-26T11:18:44;32.08;;;25.67;;
24483;SDS011;12643;51.620;7.548;2022-08-26T11:27:09;28.90;;;25.52;;
24483;SDS011;12643;51.620;7.548;2022-08-26T11:29:59;32.30;;;28.85;;
24483;SDS011;12643;51.620;7.548;2022-08-26T11:38:21;31.80;;;25.40;;
24483;SDS011;12643;51.620;7.548;2022-08-26T11:40:55;29.65;;;25.40;;
24483;SDS011;12643;51.620;7.548;2022-08-26T11:43:33;30.70;;;24.17;;
24483;SDS011;12643;51.620;7.548;2022-08-26T11:46:03;28.63;;;23.63;;
24483;SDS011;12643;51.620;7.548;2022-08-26T11:48:33;34.20;;;25.38;;
24483;SDS011;12643;51.620;7.548;2022-08-26T11:51:04;31.87;;;24.13;;
24483;SDS011;12643;51.620;7.548;2022-08-26T11:53:36;28.02;;;24.77;;
24483;SDS011;12643;51.620;7.548;2022-08-26T11:56:06;26.15;;;23.25;;
24483;SDS011;12643;51.620;7.548;2022-08-26T11:58:39;34.50;;;24.13;;
24483;SDS011;12643;51.620;7.548;2022-08-26T12:01:10;32.20;;;25.05;;
24483;SDS011;12643;51.620;7.548;2022-08-26T12:03:47;30.48;;;24.15;;
24483;SDS011;12643;51.620;7.548;2022-08-26T12:06:19;32.35;;;24.45;;
24483;SDS011;12643;51.620;7.548;2022-08-26T12:08:51;28.10;;;21.42;;
24483;SDS011;12643;51.620;7.548;2022-08-26T12:11:22;33.92;;;25.85;;
24483;SDS011;12643;51.620;7.548;2022-08-26T12:13:55;40.05;;;29.05;;
24483;SDS011;12643;51.620;7.548;2022-08-26T12:16:25;35.75;;;27.55;;
24483;SDS011;12643;51.620;7.548;2022-08-26T12:18:54;32.10;;;23.48;;
24483;SDS011;12643;51.620;7.548;2022-08-26T12:21:26;35.92;;;25.15;;
24483;SDS011;12643;51.620;7.548;2022-08-26T12:23:56;30.73;;;26.58;;
24483;SDS011;12643;51.620;7.548;2022-08-26T12:26:26;29.45;;;24.73;;
24483;SDS011;12643;51.620;7.548;2022-08-26T12:28:57;33.10;;;26.63;;
24483;SDS011;12643;51.620;7.548;2022-08-26T12:31:28;31.48;;;24.77;;
24483;SDS011;12643;51.620;7.548;2022-08-26T12:36:28;36.75;;;23.50;;
24483;SDS011;12643;51.620;7.548;2022-08-26T12:41:43;25.33;;;21.63;;
24483;SDS011;12643;51.620;7.548;2022-08-26T12:47:06;31.60;;;20.55;;
24483;SDS011;12643;51.620;7.548;2022-08-26T12:49:36;28.05;;;21.60;;
24483;SDS011;12643;51.620;7.548;2022-08-26T12:52:08;31.38;;;20.55;;
24483;SDS011;12643;51.620;7.548;2022-08-26T12:54:54;23.88;;;19.02;;
24483;SDS011;12643;51.620;7.548;2022-08-26T12:57:28;22.67;;;18.00;;
24483;SDS011;12643;51.620;7.548;2022-08-26T13:02:57;27.55;;;17.90;;
24483;SDS011;12643;51.620;7.548;2022-08-26T13:05:27;22.75;;;15.85;;
24483;SDS011;12643;51.620;7.548;2022-08-26T13:08:09;20.15;;;15.27;;
24483;SDS011;12643;51.620;7.548;2022-08-26T13:10:40;20.77;;;14.27;;
24483;SDS011;12643;51.620;7.548;2022-08-26T13:13:10;19.13;;;14.32;;
24483;SDS011;12643;51.620;7.548;2022-08-26T13:15:38;22.08;;;15.45;;
24483;SDS011;12643;51.620;7.548;2022-08-26T13:18:06;19.25;;;14.45;;
24483;SDS011;12643;51.620;7.548;2022-08-26T13:20:34;19.50;;;13.15;;
24483;SDS011;12643;51.620;7.548;2022-08-26T13:23:06;18.50;;;11.93;;
24483;SDS011;12643;51.620;7.548;2022-08-26T13:25:36;19.13;;;12.23;;
24483;SDS011;12643;51.620;7.548;2022-08-26T13:28:03;20.70;;;12.98;;
24483;SDS011;12643;51.620;7.548;2022-08-26T13:30:31;18.98;;;11.75;;
24483;SDS011;12643;51.620;7.548;2022-08-26T13:32:59;20.05;;;11.23;;
24483;SDS011;12643;51.620;7.548;2022-08-26T13:35:27;16.35;;;10.23;;
24483;SDS011;12643;51.620;7.548;2022-08-26T13:37:55;18.35;;;11.00;;
24483;SDS011;12643;51.620;7.548;2022-08-26T13:40:24;17.85;;;10.48;;
24483;SDS011;12643;51.620;7.548;2022-08-26T13:42:52;22.95;;;9.35;;
24483;SDS011;12643;51.620;7.548;2022-08-26T13:45:20;15.23;;;8.73;;
24483;SDS011;12643;51.620;7.548;2022-08-26T13:47:48;13.23;;;8.95;;
24483;SDS011;12643;51.620;7.548;2022-08-26T13:50:16;13.43;;;8.40;;
24483;SDS011;12643;51.620;7.548;2022-08-26T13:52:44;17.15;;;8.10;;
24483;SDS011;12643;51.620;7.548;2022-08-26T13:55:11;15.68;;;7.13;;
24483;SDS011;12643;51.620;7.548;2022-08-26T13:57:43;16.00;;;6.93;;
24483;SDS011;12643;51.620;7.548;2022-08-26T14:00:11;11.75;;;7.85;;
24483;SDS011;12643;51.620;7.548;2022-08-26T14:02:40;17.25;;;8.23;;
24483;SDS011;12643;51.620;7.548;2022-08-26T14:05:08;17.33;;;7.15;;
24483;SDS011;12643;51.620;7.548;2022-08-26T14:07:36;14.85;;;6.65;;
24483;SDS011;12643;51.620;7.548;2022-08-26T14:10:05;18.90;;;6.40;;
24483;SDS011;12643;51.620;7.548;2022-08-26T14:12:34;19.13;;;6.57;;
24483;SDS011;12643;51.620;7.548;2022-08-26T14:15:04;15.18;;;6.45;;
24483;SDS011;12643;51.620;7.548;2022-08-26T14:17:33;14.73;;;6.90;;
24483;SDS011;12643;51.620;7.548;2022-08-26T14:20:02;14.65;;;6.55;;
24483;SDS011;12643;51.620;7.548;2022-08-26T14:22:32;19.17;;;7.15;;
24483;SDS011;12643;51.620;7.548;2022-08-26T14:25:01;16.85;;;6.72;;
24483;SDS011;12643;51.620;7.548;2022-08-26T14:27:29;12.10;;;6.22;;
24483;SDS011;12643;51.620;7.548;2022-08-26T14:29:57;14.07;;;6.90;;
24483;SDS011;12643;51.620;7.548;2022-08-26T14:32:27;25.10;;;7.53;;
24483;SDS011;12643;51.620;7.548;2022-08-26T14:34:56;19.38;;;7.97;;
24483;SDS011;12643;51.620;7.548;2022-08-26T14:37:24;16.85;;;6.78;;
24483;SDS011;12643;51.620;7.548;2022-08-26T14:39:52;17.23;;;7.15;;
24483;SDS011;12643;51.620;7.548;2022-08-26T14:42:22;13.77;;;6.90;;
24483;SDS011;12643;51.620;7.548;2022-08-26T14:44:56;19.85;;;7.30;;
24483;SDS011;12643;51.620;7.548;2022-08-26T14:47:28;17.55;;;7.40;;
24483;SDS011;12643;51.620;7.548;2022-08-26T14:49:57;18.38;;;8.75;;
24483;SDS011;12643;51.620;7.548;2022-08-26T14:52:32;13.90;;;7.07;;
24483;SDS011;12643;51.620;7.548;2022-08-26T14:55:20;24.95;;;8.27;;
24483;SDS011;12643;51.620;7.548;2022-08-26T14:57:47;17.38;;;7.97;;
24483;SDS011;12643;51.620;7.548;2022-08-26T15:00:15;18.55;;;8.05;;
24483;SDS011;12643;51.620;7.548;2022-08-26T15:02:44;18.75;;;8.00;;
24483;SDS011;12643;51.620;7.548;2022-08-26T15:05:13;15.00;;;8.20;;
24483;SDS011;12643;51.620;7.548;2022-08-26T15:07:41;17.65;;;8.43;;
24483;SDS011;12643;51.620;7.548;2022-08-26T15:10:09;14.80;;;7.60;;
24483;SDS011;12643;51.620;7.548;2022-08-26T15:12:39;14.98;;;8.13;;
24483;SDS011;12643;51.620;7.548;2022-08-26T15:15:08;14.18;;;7.00;;
24483;SDS011;12643;51.620;7.548;2022-08-26T15:17:37;17.13;;;7.00;;
24483;SDS011;12643;51.620;7.548;2022-08-26T15:20:07;12.88;;;6.25;;
24483;SDS011;12643;51.620;7.548;2022-08-26T15:22:36;13.93;;;6.55;;
24483;SDS011;12643;51.620;7.548;2022-08-26T15:25:05;14.00;;;5.47;;
24483;SDS011;12643;51.620;7.548;2022-08-26T15:27:33;17.10;;;5.80;;
24483;SDS011;12643;51.620;7.548;2022-08-26T15:30:01;11.65;;;5.60;;
24483;SDS011;12643;51.620;7.548;2022-08-26T15:32:30;17.70;;;5.70;;
24483;SDS011;12643;51.620;7.548;2022-08-26T15:34:58;14.48;;;6.13;;
24483;SDS011;12643;51.620;7.548;2022-08-26T15:37:27;12.68;;;5.85;;
24483;SDS011;12643;51.620;7.548;2022-08-26T15:39:55;10.88;;;5.20;;
24483;SDS011;12643;51.620;7.548;2022-08-26T15:42:23;8.10;;;4.70;;
24483;SDS011;12643;51.620;7.548;2022-08-26T15:44:51;12.88;;;5.18;;